Time;durP1;ratioP1;P1;durP2;ratioP2;P2;SDS_P1;SDS_P2;PMS_P1;PMS_P2;Temp;Humidity;BMP_temperature;BMP_pressure;BME280_temperature;BME280_humidity;BME280_pressure;Samples;Min_cycle;Max_cycle;Signal;HPM_P1;HPM_P2
2022/02/21 00:00:54;;;;;;;;;;;;;;;4.96;100.00;98317.09;4917619;29;19926;-82
2022/02/21 00:03:22;;;;;;;;;;;;;;;5.15;100.00;98299.59;4931336;29;20414;-82
2022/02/21 00:05:48;;;;;;;;;;;;;;;5.33;100.00;98297.09;4923889;29;20473;-81
2022/02/21 00:08:13;;;;;;;;;;;;;;;5.41;100.00;98273.97;4939102;29;20005;-82
2022/02/21 00:10:38;;;;;;;;;;;;;;;5.50;100.00;98297.16;4920049;29;19977;-81
2022/02/21 00:13:04;;;;;;;;;;;;;;;5.56;100.00;98275.88;4921756;29;19923;-82
2022/02/21 00:15:29;;;;;;;;;;;;;;;5.62;100.00;98270.34;4941905;29;20330;-82
2022/02/21 00:17:56;;;;;;;;;;;;;;;5.69;100.00;98262.16;4924313;29;19926;-83
2022/02/21 00:20:22;;;;;;;;;;;;;;;5.87;100.00;98250.78;4922757;29;19919;-82
2022/02/21 00:22:47;;;;;;;;;;;;;;;5.97;100.00;98217.88;4941941;29;19922;-81
2022/02/21 00:25:12;;;;;;;;;;;;;;;6.10;100.00;98223.38;4922318;29;19933;-82
2022/02/21 04:27:05;;;;;;;;;;;;;;;2.90;92.49;98593.72;5483826;23;19935;-80
2022/02/21 04:29:30;;;;;;;;;;;;;;;2.85;92.60;98593.00;4916708;29;19927;-79
2022/02/21 04:31:56;;;;;;;;;;;;;;;2.89;92.77;98589.41;4915312;29;19919;-80
2022/02/21 04:34:21;;;;;;;;;;;;;;;2.76;92.71;98578.47;4917951;29;19927;-80
2022/02/21 04:36:46;;;;;;;;;;;;;;;2.57;92.70;98583.41;4927377;29;19918;-79
2022/02/21 04:39:11;;;;;;;;;;;;;;;2.50;92.53;98587.91;4917623;29;19926;-80
2022/02/21 04:41:37;;;;;;;;;;;;;;;2.46;92.70;98601.16;4926941;29;20293;-79
2022/02/21 04:44:02;;;;;;;;;;;;;;;2.31;92.67;98591.97;4916481;29;20021;-79
2022/02/21 04:46:28;;;;;;;;;;;;;;;2.19;92.23;98577.50;4916643;29;20178;-79
2022/02/21 04:48:53;;;;;;;;;;;;;;;2.15;92.11;98581.97;4916879;29;20305;-81
2022/02/21 04:51:18;;;;;;;;;;;;;;;2.08;91.64;98587.41;4929656;29;19919;-83
2022/02/21 04:53:44;;;;;;;;;;;;;;;2.02;91.44;98603.25;4916717;29;19931;-84
2022/02/21 04:56:09;;;;;;;;;;;;;;;1.92;91.18;98605.25;4914632;29;19925;-81
2022/02/21 04:58:34;;;;;;;;;;;;;;;1.82;90.70;98599.41;4913223;29;19977;-80
2022/02/21 05:00:59;;;;;;;;;;;;;;;1.72;90.26;98598.78;4929448;29;19925;-81
2022/02/21 05:03:25;;;;;;;;;;;;;;;1.75;91.39;98588.25;4917198;29;19974;-80
2022/02/21 05:05:50;;;;;;;;;;;;;;;1.90;93.79;98580.91;4917418;29;20781;-80
2022/02/21 05:08:15;;;;;;;;;;;;;;;1.83;94.36;98601.09;4912947;29;19996;-79
2022/02/21 05:10:40;;;;;;;;;;;;;;;1.69;94.50;98634.56;4912117;29;19974;-79
2022/02/21 05:13:06;;;;;;;;;;;;;;;1.64;94.71;98632.06;4917257;29;19923;-78
2022/02/21 05:15:31;;;;;;;;;;;;;;;1.49;94.50;98635.91;4933093;29;20003;-79
2022/02/21 05:17:56;;;;;;;;;;;;;;;1.38;93.92;98645.75;4934010;29;19982;-79
2022/02/21 05:20:21;;;;;;;;;;;;;;;1.33;93.96;98650.25;4934419;29;20289;-80
2022/02/21 05:22:47;;;;;;;;;;;;;;;1.29;93.79;98643.38;4916143;29;19919;-80
2022/02/21 05:25:12;;;;;;;;;;;;;;;1.18;93.33;98654.03;4933138;29;19927;-79
2022/02/21 05:27:38;;;;;;;;;;;;;;;1.25;93.90;98646.03;4931779;29;19922;-79
2022/02/21 05:30:04;;;;;;;;;;;;;;;1.61;95.31;98646.06;4933666;29;19919;-78
2022/02/21 05:32:30;;;;;;;;;;;;;;;1.92;96.64;98641.81;4932234;29;20456;-80
2022/02/21 05:34:55;;;;;;;;;;;;;;;2.24;98.45;98648.81;4914080;29;19943;-79
2022/02/21 08:44:14;;;;;;;;;;;;;;;4.04;76.87;98768.25;5397085;23;19956;-83
2022/02/21 08:46:39;;;;;;;;;;;;;;;4.05;77.13;98769.09;4906799;29;20292;-83
2022/02/21 08:49:05;;;;;;;;;;;;;;;4.09;77.04;98755.00;4905500;29;19954;-81
2022/02/21 08:51:30;;;;;;;;;;;;;;;4.09;77.18;98757.63;4920963;29;19923;-80
2022/02/21 08:53:56;;;;;;;;;;;;;;;4.06;76.74;98753.31;4910831;29;20374;-81
2022/02/21 08:56:21;;;;;;;;;;;;;;;4.07;76.44;98769.91;4905228;29;20002;-80
2022/02/21 08:58:46;;;;;;;;;;;;;;;4.11;76.35;98767.13;4902223;29;19998;-80
2022/02/21 09:01:11;;;;;;;;;;;;;;;4.09;76.20;98753.22;4918772;29;20366;-80
2022/02/21 09:03:37;;;;;;;;;;;;;;;4.19;75.86;98752.00;4920849;29;19962;-81
2022/02/21 09:06:02;;;;;;;;;;;;;;;4.24;76.02;98758.88;4917009;29;19919;-81
2022/02/21 09:08:31;;;;;;;;;;;;;;;4.24;75.94;98753.63;4903153;29;19941;-81
2022/02/21 09:10:56;;;;;;;;;;;;;;;4.23;75.69;98751.91;4920080;29;20002;-81
2022/02/21 09:13:22;;;;;;;;;;;;;;;4.24;75.73;98751.00;4900055;29;20022;-81
2022/02/21 09:15:47;;;;;;;;;;;;;;;4.29;75.76;98741.22;4917010;29;20194;-81
2022/02/21 09:18:12;;;;;;;;;;;;;;;4.29;75.81;98743.84;4914396;29;19957;-82
2022/02/21 09:20:38;;;;;;;;;;;;;;;4.42;75.63;98758.25;4920703;29;20366;-81
2022/02/21 09:23:04;;;;;;;;;;;;;;;4.40;75.31;98752.19;4899211;29;19926;-81
2022/02/21 09:25:29;;;;;;;;;;;;;;;4.41;75.33;98753.06;4904154;29;19951;-81
2022/02/21 09:27:54;;;;;;;;;;;;;;;4.45;75.28;98749.41;4897813;29;19962;-81
2022/02/21 09:30:20;;;;;;;;;;;;;;;4.45;74.83;98755.53;4904828;29;20094;-82
2022/02/21 09:32:45;;;;;;;;;;;;;;;4.52;75.34;98741.28;4903082;29;19932;-81
2022/02/21 09:35:11;;;;;;;;;;;;;;;4.47;74.89;98732.72;4904780;29;20025;-82
2022/02/21 09:37:38;;;;;;;;;;;;;;;4.52;74.78;98735.19;4902681;29;20523;-82
2022/02/21 09:40:07;;;;;;;;;;;;;;;4.58;74.68;98744.59;4903148;29;19973;-81
2022/02/21 09:42:32;;;;;;;;;;;;;;;4.54;74.68;98736.81;4902433;29;20812;-80
2022/02/21 09:44:58;;;;;;;;;;;;;;;4.52;74.18;98745.69;4901646;29;19923;-80
2022/02/21 09:47:24;;;;;;;;;;;;;;;4.62;74.14;98741.81;4900032;29;19960;-80
2022/02/21 09:49:53;;;;;;;;;;;;;;;4.61;73.90;98744.50;4901961;29;19924;-80
2022/02/21 09:52:18;;;;;;;;;;;;;;;4.68;74.17;98735.50;4902356;29;19970;-82
2022/02/21 09:54:43;;;;;;;;;;;;;;;4.70;74.18;98733.69;4901237;29;20413;-81
2022/02/21 09:57:09;;;;;;;;;;;;;;;4.65;74.34;98730.38;4903088;29;19919;-80
2022/02/21 09:59:35;;;;;;;;;;;;;;;4.65;73.98;98735.63;4914257;29;20577;-82
2022/02/21 10:02:00;;;;;;;;;;;;;;;4.78;73.96;98744.75;4900690;29;20149;-81
2022/02/21 10:04:27;;;;;;;;;;;;;;;4.81;73.56;98763.00;4917811;29;19923;-82
2022/02/21 10:06:54;;;;;;;;;;;;;;;4.80;73.81;98728.94;4918287;29;20021;-80
2022/02/21 10:09:19;;;;;;;;;;;;;;;4.72;73.27;98737.09;4919932;29;19919;-80
2022/02/21 10:11:46;;;;;;;;;;;;;;;4.76;73.44;98735.25;4918459;29;20289;-80
2022/02/21 10:14:12;;;;;;;;;;;;;;;4.84;73.50;98739.28;4916869;29;20363;-80
2022/02/21 10:16:40;;;;;;;;;;;;;;;4.89;72.97;98744.38;4918476;29;20371;-81
2022/02/21 10:19:09;;;;;;;;;;;;;;;4.85;73.07;98738.38;4919038;29;20112;-80
2022/02/21 10:21:54;;;;;;;;;;;;;;;4.84;73.51;98746.31;4917782;29;19960;-81
2022/02/21 10:24:20;;;;;;;;;;;;;;;4.90;73.17;98740.84;4900673;29;19930;-80
2022/02/21 10:26:45;;;;;;;;;;;;;;;4.90;72.75;98746.94;4918087;29;19919;-80
2022/02/21 10:29:11;;;;;;;;;;;;;;;5.05;72.44;98747.28;4915331;29;19934;-79
2022/02/21 10:31:36;;;;;;;;;;;;;;;4.97;72.22;98749.34;4916666;29;19970;-80
2022/02/21 10:34:03;;;;;;;;;;;;;;;4.96;72.55;98737.97;4917321;29;19923;-80
2022/02/21 10:36:33;;;;;;;;;;;;;;;4.98;72.35;98732.66;4918303;29;19930;-80
2022/02/21 10:38:59;;;;;;;;;;;;;;;5.03;72.13;98726.34;4917139;29;20301;-83
2022/02/21 10:41:39;;;;;;;;;;;;;;;5.03;72.54;98734.22;4917076;29;19919;-84
2022/02/21 10:44:14;;;;;;;;;;;;;;;5.02;72.47;98723.78;4914895;29;20038;-80
2022/02/21 10:46:39;;;;;;;;;;;;;;;5.04;72.06;98727.19;4917198;29;19923;-80
2022/02/21 10:49:09;;;;;;;;;;;;;;;5.12;72.14;98729.53;4917808;29;20310;-80
2022/02/21 10:51:35;;;;;;;;;;;;;;;5.13;72.30;98731.25;4918135;29;19919;-81
2022/02/21 10:54:06;;;;;;;;;;;;;;;5.16;72.41;98725.91;4917613;29;19919;-80
2022/02/21 10:56:42;;;;;;;;;;;;;;;5.17;71.83;98728.47;4902370;29;20064;-80
2022/02/21 10:59:07;;;;;;;;;;;;;;;5.19;71.46;98736.28;4915695;29;19919;-81
2022/02/21 11:01:33;;;;;;;;;;;;;;;5.18;71.54;98734.56;4918288;29;19925;-80
2022/02/21 11:04:00;;;;;;;;;;;;;;;5.27;71.42;98735.06;4917158;29;20468;-81
2022/02/21 11:06:25;;;;;;;;;;;;;;;5.27;71.65;98735.06;4917456;29;19947;-80
2022/02/21 11:08:53;;;;;;;;;;;;;;;5.33;71.90;98730.47;4919350;29;19923;-80
2022/02/21 11:11:21;;;;;;;;;;;;;;;5.31;71.55;98730.53;4919513;29;19930;-80
2022/02/21 11:13:48;;;;;;;;;;;;;;;5.35;71.52;98736.56;4919590;29;19923;-80
2022/02/21 11:16:14;;;;;;;;;;;;;;;5.42;71.79;98728.34;4918422;29;20189;-81
2022/02/21 11:18:40;;;;;;;;;;;;;;;5.40;71.76;98724.09;4918298;29;20397;-80
2022/02/21 11:21:05;;;;;;;;;;;;;;;5.40;72.01;98730.19;4900821;29;19926;-80
2022/02/21 11:23:31;;;;;;;;;;;;;;;5.45;72.13;98717.72;4919870;29;20107;-81
2022/02/21 11:25:56;;;;;;;;;;;;;;;5.56;72.38;98714.69;4919261;29;19922;-80
2022/02/21 11:28:31;;;;;;;;;;;;;;;5.51;72.36;98711.41;4915244;29;20394;-81
2022/02/21 11:30:57;;;;;;;;;;;;;;;5.59;72.11;98724.25;4918800;29;20163;-80
2022/02/21 11:33:23;;;;;;;;;;;;;;;5.58;72.29;98707.59;4916084;29;19919;-82
2022/02/21 11:36:05;;;;;;;;;;;;;;;5.64;72.28;98711.75;4917162;29;19926;-80
2022/02/21 11:38:33;;;;;;;;;;;;;;;5.68;71.84;98709.84;4917374;29;20343;-80
2022/02/21 11:41:14;;;;;;;;;;;;;;;5.67;71.86;98692.41;4916536;29;19923;-82
2022/02/21 11:43:41;;;;;;;;;;;;;;;5.68;71.62;98694.09;4915224;29;19919;-81
2022/02/21 11:46:08;;;;;;;;;;;;;;;5.69;71.58;98708.97;4917093;29;20093;-81
2022/02/21 11:48:59;;;;;;;;;;;;;;;5.70;71.55;98701.00;4900234;29;19991;-81
2022/02/21 11:51:25;;;;;;;;;;;;;;;5.79;71.57;98690.13;4910090;29;20004;-81
2022/02/21 11:53:50;;;;;;;;;;;;;;;5.72;71.89;98687.81;4917701;29;19955;-81
2022/02/21 11:56:15;;;;;;;;;;;;;;;5.74;71.80;98693.84;4915781;29;19923;-83
2022/02/21 11:58:45;;;;;;;;;;;;;;;5.81;71.54;98683.03;4914963;29;19923;-84
2022/02/21 12:01:11;;;;;;;;;;;;;;;5.88;71.66;98678.38;4916925;29;20283;-82
2022/02/21 12:03:37;;;;;;;;;;;;;;;5.82;71.74;98684.75;4916583;29;19923;-82
2022/02/21 12:06:02;;;;;;;;;;;;;;;5.81;71.61;98682.19;4916262;29;19918;-82
2022/02/21 12:08:27;;;;;;;;;;;;;;;5.88;71.68;98685.41;4916417;29;20430;-81
2022/02/21 12:11:06;;;;;;;;;;;;;;;5.88;71.58;98681.00;4917259;29;19919;-81
2022/02/21 12:13:33;;;;;;;;;;;;;;;5.90;71.34;98668.63;4913322;29;19927;-83
2022/02/21 12:16:02;;;;;;;;;;;;;;;5.90;71.44;98670.41;4917709;29;19915;-81
2022/02/21 12:18:30;;;;;;;;;;;;;;;5.94;71.74;98658.88;4915198;29;20010;-81
2022/02/21 12:21:21;;;;;;;;;;;;;;;5.98;71.85;98656.06;4915878;29;19926;-82
2022/02/21 12:23:52;;;;;;;;;;;;;;;6.00;71.62;98662.13;4918434;29;19923;-81
2022/02/21 12:26:37;;;;;;;;;;;;;;;5.94;71.90;98667.59;4918154;29;19919;-81
2022/02/21 12:29:11;;;;;;;;;;;;;;;5.97;71.98;98654.34;4915592;29;19923;-81
2022/02/21 12:31:38;;;;;;;;;;;;;;;6.00;71.48;98641.09;4918333;29;19923;-83
2022/02/21 12:34:04;;;;;;;;;;;;;;;6.07;71.66;98643.47;4920584;29;20552;-83
2022/02/21 12:36:36;;;;;;;;;;;;;;;6.08;71.52;98634.63;4916353;29;19993;-83
2022/02/21 12:39:03;;;;;;;;;;;;;;;6.09;71.51;98666.13;4915834;29;19918;-81
2022/02/21 12:41:35;;;;;;;;;;;;;;;6.15;71.55;98654.50;4915169;29;19919;-82
2022/02/21 12:44:02;;;;;;;;;;;;;;;6.13;71.32;98648.47;4914281;29;20376;-83
2022/02/21 12:46:28;;;;;;;;;;;;;;;6.20;71.04;98626.22;4919108;29;19927;-83
2022/02/21 12:48:53;;;;;;;;;;;;;;;6.20;70.87;98642.00;4919788;29;19930;-84
2022/02/21 12:51:23;;;;;;;;;;;;;;;6.26;71.23;98640.88;4920780;29;19923;-84
2022/02/21 12:54:05;;;;;;;;;;;;;;;6.40;72.91;98645.53;4920922;29;19922;-82
2022/02/21 12:56:41;;;;;;;;;;;;;;;6.49;74.74;98605.66;4921683;29;20358;-84
2022/02/21 12:59:06;;;;;;;;;;;;;;;6.51;75.97;98616.97;4919582;29;19926;-82
2022/02/21 13:01:31;;;;;;;;;;;;;;;6.50;76.54;98607.38;4919605;29;19919;-82
2022/02/21 13:03:58;;;;;;;;;;;;;;;6.41;77.04;98592.00;4919201;29;19930;-82
2022/02/21 13:06:24;;;;;;;;;;;;;;;6.31;77.82;98623.13;4916559;29;20036;-81
2022/02/21 13:08:49;;;;;;;;;;;;;;;6.14;78.55;98608.94;4920096;29;19922;-81
2022/02/21 13:11:25;;;;;;;;;;;;;;;6.00;79.44;98627.09;4920945;29;19919;-82
2022/02/21 13:13:50;;;;;;;;;;;;;;;5.85;80.66;98628.53;4908589;29;20402;-82
2022/02/21 13:16:15;;;;;;;;;;;;;;;5.76;82.47;98629.78;4920258;29;19918;-81
2022/02/21 13:18:52;;;;;;;;;;;;;;;5.75;84.91;98640.38;4920825;29;19918;-82
2022/02/21 13:21:34;;;;;;;;;;;;;;;5.91;87.72;98625.66;4918255;29;19927;-85
2022/02/21 13:24:00;;;;;;;;;;;;;;;6.14;91.59;98647.50;4917808;29;19972;-86
2022/02/21 13:26:25;;;;;;;;;;;;;;;6.39;95.42;98646.47;4917146;29;19952;-84
2022/02/21 13:28:51;;;;;;;;;;;;;;;6.59;98.66;98656.09;4914533;29;19955;-83
2022/02/21 13:31:16;;;;;;;;;;;;;;;6.72;100.00;98641.47;4917270;29;20375;-84
2022/02/21 13:33:42;;;;;;;;;;;;;;;6.83;100.00;98640.97;4918933;29;19923;-82
2022/02/21 13:36:07;;;;;;;;;;;;;;;6.88;100.00;98631.09;4918673;29;19942;-82
2022/02/21 13:38:33;;;;;;;;;;;;;;;6.95;100.00;98639.56;4919292;29;20021;-82
2022/02/21 13:40:59;;;;;;;;;;;;;;;7.01;100.00;98629.59;4919472;29;20068;-81
2022/02/21 13:43:24;;;;;;;;;;;;;;;7.11;100.00;98629.16;4918249;29;19954;-81
2022/02/21 13:45:50;;;;;;;;;;;;;;;7.15;100.00;98635.97;4919252;29;19950;-81
2022/02/21 13:48:18;;;;;;;;;;;;;;;7.19;100.00;98622.59;4919968;29;19919;-81
2022/02/21 13:50:54;;;;;;;;;;;;;;;7.26;100.00;98613.50;4918967;29;19926;-81
2022/02/21 13:53:22;;;;;;;;;;;;;;;7.31;100.00;98615.91;4919025;29;19929;-81
2022/02/21 13:55:57;;;;;;;;;;;;;;;7.31;100.00;98586.94;4919284;29;19974;-81
2022/02/21 13:58:43;;;;;;;;;;;;;;;7.36;100.00;98600.72;4915379;29;20026;-81
2022/02/21 14:01:28;;;;;;;;;;;;;;;7.44;100.00;98598.56;4919807;29;19930;-81
2022/02/21 14:03:58;;;;;;;;;;;;;;;7.45;100.00;98591.50;4917037;29;19934;-82
2022/02/21 14:06:26;;;;;;;;;;;;;;;7.52;100.00;98578.91;4917409;29;19924;-85
2022/02/21 14:08:55;;;;;;;;;;;;;;;7.55;100.00;98586.66;4921038;29;19998;-82
2022/02/21 14:11:32;;;;;;;;;;;;;;;7.58;100.00;98586.50;4916475;29;20264;-82
2022/02/21 14:13:57;;;;;;;;;;;;;;;7.58;100.00;98589.13;4917683;29;20072;-82
2022/02/21 14:16:24;;;;;;;;;;;;;;;7.60;100.00;98590.75;4916552;29;19930;-83
2022/02/21 14:18:49;;;;;;;;;;;;;;;7.67;100.00;98596.56;4917498;29;19961;-82
2022/02/21 14:21:14;;;;;;;;;;;;;;;7.69;100.00;98613.19;4917728;29;20412;-81
2022/02/21 14:23:40;;;;;;;;;;;;;;;7.71;100.00;98619.22;4918989;29;20068;-82
2022/02/21 14:26:06;;;;;;;;;;;;;;;6.86;100.00;98630.28;4918616;29;20301;-83
2022/02/21 14:28:32;;;;;;;;;;;;;;;5.04;100.00;98627.41;4918109;29;19922;-81
2022/02/21 14:30:57;;;;;;;;;;;;;;;4.22;97.98;98626.97;4901347;29;19927;-82
2022/02/21 14:33:22;;;;;;;;;;;;;;;4.18;95.98;98618.34;4917204;29;19919;-82
2022/02/21 14:35:48;;;;;;;;;;;;;;;3.60;94.26;98615.94;4917892;29;19919;-84
2022/02/21 14:38:13;;;;;;;;;;;;;;;3.43;93.38;98621.72;4915819;29;20134;-82
2022/02/21 14:40:40;;;;;;;;;;;;;;;3.29;92.49;98616.97;4920451;29;20327;-83
2022/02/21 14:43:05;;;;;;;;;;;;;;;3.27;92.02;98616.13;4913757;29;19945;-82
2022/02/21 14:45:31;;;;;;;;;;;;;;;3.11;91.91;98615.75;4898530;29;20544;-81
2022/02/21 14:47:56;;;;;;;;;;;;;;;2.80;90.52;98615.84;4917175;29;20025;-84
2022/02/21 14:50:21;;;;;;;;;;;;;;;2.83;90.15;98607.91;4918787;29;19974;-82
2022/02/21 14:52:47;;;;;;;;;;;;;;;2.71;89.17;98607.38;4902119;29;20501;-81
2022/02/21 14:55:13;;;;;;;;;;;;;;;2.51;88.77;98614.94;4920973;29;19923;-81
2022/02/21 14:57:38;;;;;;;;;;;;;;;2.40;88.23;98606.56;4917906;29;19946;-83
2022/02/21 15:00:05;;;;;;;;;;;;;;;2.22;87.78;98613.13;4898407;29;19923;-81
2022/02/21 15:02:30;;;;;;;;;;;;;;;2.26;87.28;98620.84;4917340;29;20394;-82
2022/02/21 15:04:55;;;;;;;;;;;;;;;2.04;87.01;98630.19;4917248;29;19923;-83
2022/02/21 15:07:21;;;;;;;;;;;;;;;1.94;86.23;98619.13;4917170;29;19922;-85
2022/02/21 15:09:46;;;;;;;;;;;;;;;1.72;86.11;98618.81;4916057;29;20289;-84
2022/02/21 15:12:11;;;;;;;;;;;;;;;1.68;85.96;98617.19;4920048;29;19931;-81
2022/02/21 15:14:37;;;;;;;;;;;;;;;1.55;85.51;98625.31;4920173;29;19938;-81
2022/02/21 15:17:02;;;;;;;;;;;;;;;1.50;85.55;98626.31;4920271;29;19930;-81
2022/02/21 15:19:27;;;;;;;;;;;;;;;1.43;85.62;98638.66;4916422;29;19934;-83
2022/02/21 15:21:53;;;;;;;;;;;;;;;1.54;86.02;98627.97;4917724;29;19923;-81
2022/02/21 15:24:18;;;;;;;;;;;;;;;1.97;88.75;98638.19;4917957;29;20433;-81
2022/02/21 15:26:45;;;;;;;;;;;;;;;2.45;91.90;98631.66;4917995;29;19918;-81
2022/02/21 15:29:10;;;;;;;;;;;;;;;2.53;93.99;98634.91;4916413;29;19918;-82
2022/02/21 15:31:36;;;;;;;;;;;;;;;2.77;95.95;98642.09;4916354;29;19923;-85
2022/02/21 15:34:02;;;;;;;;;;;;;;;2.90;97.38;98640.81;4916686;29;19969;-81
2022/02/21 15:36:27;;;;;;;;;;;;;;;2.81;97.80;98636.75;4919145;29;20003;-82
2022/02/21 15:38:52;;;;;;;;;;;;;;;2.97;98.80;98638.88;4918565;29;19992;-82
2022/02/21 15:41:18;;;;;;;;;;;;;;;3.06;99.29;98642.09;4916971;29;19919;-82
2022/02/21 15:43:43;;;;;;;;;;;;;;;3.07;99.45;98649.03;4917234;29;20018;-81
2022/02/21 15:46:08;;;;;;;;;;;;;;;3.02;99.61;98663.16;4916225;29;20387;-82
2022/02/21 15:48:34;;;;;;;;;;;;;;;3.02;99.99;98673.63;4918292;29;19965;-81
2022/02/21 15:50:59;;;;;;;;;;;;;;;3.19;100.00;98679.22;4918316;29;20495;-83
2022/02/21 15:53:25;;;;;;;;;;;;;;;3.23;100.00;98695.69;4917160;29;20136;-83
2022/02/21 15:55:50;;;;;;;;;;;;;;;3.17;99.87;98691.47;4913726;29;19930;-85
2022/02/21 15:58:15;;;;;;;;;;;;;;;3.24;99.65;98705.28;4912285;29;19954;-82
2022/02/21 16:00:41;;;;;;;;;;;;;;;3.15;99.34;98705.53;4917359;29;19927;-81
2022/02/21 16:03:06;;;;;;;;;;;;;;;3.20;99.31;98719.34;4916673;29;20015;-82
2022/02/21 16:05:33;;;;;;;;;;;;;;;3.16;98.87;98731.69;4917774;29;20021;-81
2022/02/21 16:07:58;;;;;;;;;;;;;;;3.26;98.60;98742.72;4915234;29;19930;-82
2022/02/21 16:10:23;;;;;;;;;;;;;;;3.44;98.11;98743.94;4916503;29;19927;-85
2022/02/21 16:12:49;;;;;;;;;;;;;;;3.42;97.46;98741.34;4916323;29;19978;-83
2022/02/21 16:15:14;;;;;;;;;;;;;;;3.53;96.78;98742.81;4914009;29;19969;-82
2022/02/21 16:17:39;;;;;;;;;;;;;;;3.55;96.04;98760.16;4898331;29;19934;-81
2022/02/21 16:20:05;;;;;;;;;;;;;;;3.47;95.56;98758.69;4919593;29;20092;-82
2022/02/21 16:22:31;;;;;;;;;;;;;;;3.52;94.67;98773.34;4917850;29;20002;-82
2022/02/21 16:24:56;;;;;;;;;;;;;;;3.49;93.96;98783.06;4919963;29;19923;-75
2022/02/21 16:27:22;;;;;;;;;;;;;;;4.79;94.99;98785.84;4920384;29;20559;-86
2022/02/21 16:29:47;;;;;;;;;;;;;;;4.28;93.84;98807.69;4920119;29;19970;-85
2022/02/21 16:32:13;;;;;;;;;;;;;;;4.08;92.87;98814.41;4902202;29;20398;-83
2022/02/21 16:34:38;;;;;;;;;;;;;;;3.98;92.09;98833.97;4904688;29;20030;-86
2022/02/21 16:37:03;;;;;;;;;;;;;;;3.94;91.62;98841.09;4924409;29;19926;-85
2022/02/21 16:39:28;;;;;;;;;;;;;;;3.95;90.95;98848.03;4922353;29;19930;-84
2022/02/21 16:41:54;;;;;;;;;;;;;;;3.95;90.34;98855.03;4919547;29;20388;-85
2022/02/21 16:44:21;;;;;;;;;;;;;;;3.87;90.14;98859.66;4918872;29;20341;-85
2022/02/21 16:46:47;;;;;;;;;;;;;;;3.89;89.70;98874.44;4921685;29;20547;-84
2022/02/21 16:49:13;;;;;;;;;;;;;;;3.85;89.36;98878.06;4922192;29;19922;-85
2022/02/21 16:51:38;;;;;;;;;;;;;;;3.92;89.29;98886.59;4921677;29;20306;-85
2022/02/21 16:54:06;;;;;;;;;;;;;;;3.93;88.87;98881.31;4920074;29;20364;-84
2022/02/21 16:56:31;;;;;;;;;;;;;;;3.84;88.48;98878.09;4920796;29;19923;-83
2022/02/21 16:58:56;;;;;;;;;;;;;;;3.84;88.26;98896.44;4921160;29;20725;-84
2022/02/21 17:01:22;;;;;;;;;;;;;;;3.85;88.05;98900.81;4920991;29;20321;-84
2022/02/21 17:03:48;;;;;;;;;;;;;;;3.83;87.87;98906.09;4905340;29;19923;-83
2022/02/21 17:06:13;;;;;;;;;;;;;;;3.81;87.73;98911.38;4922339;29;20327;-83
2022/02/21 17:08:38;;;;;;;;;;;;;;;3.76;87.99;98913.25;4924032;29;19919;-83
2022/02/21 17:11:03;;;;;;;;;;;;;;;3.85;87.60;98916.53;4915643;29;20194;-84
2022/02/21 17:13:29;;;;;;;;;;;;;;;3.80;87.16;98925.38;4900368;29;20286;-84
2022/02/21 17:15:59;;;;;;;;;;;;;;;3.78;87.03;98915.81;4899552;29;19973;-84
2022/02/21 17:18:24;;;;;;;;;;;;;;;3.84;87.09;98927.91;4902999;29;19938;-83
2022/02/21 17:20:50;;;;;;;;;;;;;;;3.81;86.79;98927.09;4919689;29;19927;-84
2022/02/21 17:23:16;;;;;;;;;;;;;;;3.82;86.36;98936.66;4919425;29;19923;-83
2022/02/21 17:25:41;;;;;;;;;;;;;;;3.82;86.34;98944.50;4901438;29;19934;-85
2022/02/21 17:28:07;;;;;;;;;;;;;;;3.87;86.54;98956.63;4918759;29;19927;-83
2022/02/21 17:30:32;;;;;;;;;;;;;;;3.79;86.51;98965.56;4918193;29;19919;-84
2022/02/21 17:32:58;;;;;;;;;;;;;;;3.81;86.45;98973.38;4918890;29;19927;-83
2022/02/21 17:35:23;;;;;;;;;;;;;;;3.82;86.15;98983.81;4905094;29;20017;-83
2022/02/21 17:37:51;;;;;;;;;;;;;;;3.85;85.96;98989.91;4917935;29;19927;-84
2022/02/21 17:40:16;;;;;;;;;;;;;;;3.82;85.82;98991.69;4901672;29;20480;-84
2022/02/21 17:42:41;;;;;;;;;;;;;;;3.79;85.67;99002.25;4919574;29;20015;-84
2022/02/21 17:45:07;;;;;;;;;;;;;;;3.85;85.30;98996.00;4901060;29;20532;-84
2022/02/21 17:47:32;;;;;;;;;;;;;;;3.80;85.18;99014.47;4902133;29;19978;-84
2022/02/21 17:49:58;;;;;;;;;;;;;;;3.81;84.84;99024.06;4901243;29;20374;-83
2022/02/21 17:52:23;;;;;;;;;;;;;;;3.80;84.32;99029.34;4918887;29;19923;-84
2022/02/21 17:54:48;;;;;;;;;;;;;;;3.80;84.17;99029.34;4920091;29;19998;-84
2022/02/21 17:57:14;;;;;;;;;;;;;;;3.81;84.09;99039.78;4918070;29;20338;-84
2022/02/21 17:59:39;;;;;;;;;;;;;;;3.76;83.89;99046.88;4915445;29;19923;-84
2022/02/21 18:02:04;;;;;;;;;;;;;;;3.76;83.94;99059.13;4918264;29;19971;-84
2022/02/21 18:04:30;;;;;;;;;;;;;;;3.77;83.81;99061.72;4918138;29;20033;-84
2022/02/21 18:06:56;;;;;;;;;;;;;;;3.76;84.07;99064.38;4918082;29;19927;-83
2022/02/21 18:09:21;;;;;;;;;;;;;;;3.76;83.69;99065.22;4899716;29;19949;-84
2022/02/21 18:11:46;;;;;;;;;;;;;;;3.77;83.42;99092.31;4917735;29;20596;-84
2022/02/21 18:14:13;;;;;;;;;;;;;;;3.77;83.33;99093.16;4898798;29;19986;-83
2022/02/21 18:16:38;;;;;;;;;;;;;;;3.82;83.22;99093.91;4899585;29;19933;-85
2022/02/21 18:19:04;;;;;;;;;;;;;;;3.77;83.04;99092.31;4915068;29;19938;-84
2022/02/21 18:21:30;;;;;;;;;;;;;;;3.75;83.03;99100.22;4899346;29;19934;-84
2022/02/21 18:23:56;;;;;;;;;;;;;;;3.82;82.99;99122.72;4905723;29;20544;-84
2022/02/21 18:26:21;;;;;;;;;;;;;;;3.82;82.79;99120.09;4902442;29;19934;-85
2022/02/21 18:28:47;;;;;;;;;;;;;;;3.81;82.57;99133.25;4900193;29;20462;-84
2022/02/21 18:31:12;;;;;;;;;;;;;;;3.77;82.23;99135.09;4903127;29;19993;-84
2022/02/21 18:33:38;;;;;;;;;;;;;;;3.78;82.08;99151.66;4901019;29;19930;-84
2022/02/21 18:36:05;;;;;;;;;;;;;;;3.79;81.93;99153.41;4902344;29;20013;-83
2022/02/21 18:38:32;;;;;;;;;;;;;;;3.81;82.08;99162.06;4902746;29;19979;-84
2022/02/21 18:40:59;;;;;;;;;;;;;;;3.79;81.78;99159.50;4920281;29;19957;-83
2022/02/21 18:43:24;;;;;;;;;;;;;;;3.72;81.92;99168.44;4907177;29;19931;-84
2022/02/21 18:45:49;;;;;;;;;;;;;;;3.75;81.86;99176.22;4915585;29;19923;-84
2022/02/21 18:48:15;;;;;;;;;;;;;;;3.75;81.31;99177.94;4900109;29;19927;-84
2022/02/21 18:50:41;;;;;;;;;;;;;;;3.76;81.14;99179.69;4903479;29;20065;-85
2022/02/21 18:53:06;;;;;;;;;;;;;;;3.77;81.08;99192.75;4902637;29;20395;-83
2022/02/21 18:55:32;;;;;;;;;;;;;;;3.69;81.02;99201.72;4902467;29;19966;-83
2022/02/21 18:57:58;;;;;;;;;;;;;;;3.73;81.03;99214.69;4920350;29;19929;-85
2022/02/21 19:00:23;;;;;;;;;;;;;;;3.73;80.92;99219.06;4898930;29;19963;-84
2022/02/21 19:02:49;;;;;;;;;;;;;;;3.75;80.98;99222.50;4903669;29;19922;-84
2022/02/21 19:05:15;;;;;;;;;;;;;;;3.79;80.98;99225.00;4921409;29;20042;-84
2022/02/21 19:07:41;;;;;;;;;;;;;;;3.76;80.78;99232.94;4909160;29;19922;-85
2022/02/21 19:10:06;;;;;;;;;;;;;;;3.76;80.49;99232.94;4901011;29;19929;-86
2022/02/21 19:12:32;;;;;;;;;;;;;;;3.74;80.30;99245.22;4918446;29;20017;-85
2022/02/21 19:14:57;;;;;;;;;;;;;;;3.76;80.29;99255.69;4919025;29;19922;-85
2022/02/21 19:17:22;;;;;;;;;;;;;;;3.78;80.36;99257.38;4902715;29;20507;-85
2022/02/21 19:19:47;;;;;;;;;;;;;;;3.79;80.05;99264.31;4919416;29;19953;-85
2022/02/21 19:22:13;;;;;;;;;;;;;;;3.80;80.15;99283.56;4919310;29;19930;-84
2022/02/21 19:24:39;;;;;;;;;;;;;;;3.84;80.28;99285.19;4899313;29;20522;-85
2022/02/21 19:27:04;;;;;;;;;;;;;;;3.76;80.08;99285.34;4899646;29;19923;-85
2022/02/21 19:29:29;;;;;;;;;;;;;;;3.81;79.98;99291.38;4917499;29;20407;-85
2022/02/21 19:31:55;;;;;;;;;;;;;;;3.85;79.88;99291.31;4897340;29;19927;-84
2022/02/21 19:34:20;;;;;;;;;;;;;;;3.81;79.80;99299.25;4916792;29;20020;-85
2022/02/21 19:36:45;;;;;;;;;;;;;;;3.86;79.83;99307.00;4902471;29;19933;-84
2022/02/21 19:39:11;;;;;;;;;;;;;;;3.84;79.61;99310.53;4916475;29;19922;-84
2022/02/21 19:41:36;;;;;;;;;;;;;;;3.82;79.69;99316.66;4899267;29;19927;-85
2022/02/21 19:44:01;;;;;;;;;;;;;;;3.87;79.34;99320.97;4915858;29;19931;-84
2022/02/21 19:46:27;;;;;;;;;;;;;;;3.83;78.76;99328.03;4898853;29;20521;-85
2022/02/21 19:48:52;;;;;;;;;;;;;;;3.86;78.90;99322.72;4901221;29;20553;-84
2022/02/21 19:51:17;;;;;;;;;;;;;;;3.86;78.57;99329.72;4919748;29;19931;-84
2022/02/21 19:53:43;;;;;;;;;;;;;;;3.86;78.76;99338.47;4903312;29;19974;-85
2022/02/21 19:56:10;;;;;;;;;;;;;;;3.85;78.22;99335.88;4907725;29;19975;-83
2022/02/21 19:58:36;;;;;;;;;;;;;;;3.84;78.43;99350.72;4906403;29;19995;-84